Time,TemperatureF,DewpointF,PressureIn,WindDirection,WindDirectionDegrees,WindSpeedMPH,WindSpeedGustMPH,Humidity,HourlyPrecipIn,Conditions,Clouds,dailyrainin,SoftwareType,DateUTC
2013-08-15 00:01:00,57.7,37.1,29.41,NE,47,0.0,0.0,46,0.00,,,0.00,VWS V13.01,2013-08-15 04:01:00,
2013-08-15 00:06:00,57.6,37.0,29.41,NE,47,0.0,0.0,46,0.00,,,0.00,VWS V13.01,2013-08-15 04:06:00,
2013-08-15 00:11:00,57.6,37.0,29.41,NE,47,0.0,0.0,46,0.00,,,0.00,VWS V13.01,2013-08-15 04:11:00,
2013-08-15 00:16:00,57.4,37.3,29.41,NE,47,0.0,0.0,47,0.00,,,0.00,VWS V13.01,2013-08-15 04:16:00,
2013-08-15 00:21:00,57.2,37.2,29.41,NE,47,0.0,0.0,47,0.00,,,0.00,VWS V13.01,2013-08-15 04:21:00,
2013-08-15 00:26:00,57.2,37.2,29.41,East,96,0.0,2.7,47,0.00,,,0.00,VWS V13.01,2013-08-15 04:26:00,
2013-08-15 00:31:00,57.0,37.5,29.41,ESE,117,2.2,3.1,48,0.00,,,0.00,VWS V13.01,2013-08-15 04:31:00,
2013-08-15 00:36:00,57.0,38.1,29.41,SSE,156,0.0,0.0,49,0.00,,,0.00,VWS V13.01,2013-08-15 04:36:00,
2013-08-15 00:41:00,57.0,38.1,29.41,SSE,156,0.0,0.0,49,0.00,,,0.00,VWS V13.01,2013-08-15 04:41:00,
2013-08-15 00:46:00,57.0,38.1,29.41,East,87,0.0,3.6,49,0.00,,,0.00,VWS V13.01,2013-08-15 04:46:00,
2013-08-15 00:51:00,57.0,39.1,29.41,ESE,106,3.6,4.9,51,0.00,,,0.00,VWS V13.01,2013-08-15 04:51:00,
2013-08-15 00:56:00,57.0,39.6,29.41,ENE,69,0.0,0.0,52,0.00,,,0.00,VWS V13.01,2013-08-15 04:56:00,
2013-08-15 01:01:00,57.0,39.1,29.41,ENE,69,0.0,0.0,51,0.00,,,0.00,VWS V13.01,2013-08-15 05:01:00,
2013-08-15 01:06:00,57.0,39.1,29.41,ENE,69,0.0,0.0,51,0.00,,,0.00,VWS V13.01,2013-08-15 05:06:00,
2013-08-15 01:11:00,56.8,38.9,29.41,ENE,69,0.0,0.0,51,0.00,,,0.00,VWS V13.01,2013-08-15 05:11:00,
2013-08-15 01:16:00,56.8,38.9,29.41,ENE,69,0.0,0.0,51,0.00,,,0.00,VWS V13.01,2013-08-15 05:16:00,
2013-08-15 01:21:00,56.7,38.8,29.41,ENE,69,0.0,0.0,51,0.00,,,0.00,VWS V13.01,2013-08-15 05:21:00,
2013-08-15 01:26:00,56.7,38.8,29.41,ESE,117,0.0,0.0,51,0.00,,,0.00,VWS V13.01,2013-08-15 05:26:00,
2013-08-15 01:31:00,56.5,38.6,29.41,ESE,117,0.0,0.0,51,0.00,,,0.00,VWS V13.01,2013-08-15 05:31:00,
2013-08-15 01:36:00,56.3,38.4,29.41,ESE,112,0.0,0.0,51,0.00,,,0.00,VWS V13.01,2013-08-15 05:36:00,
2013-08-15 01:41:00,56.3,38.4,29.41,ESE,112,0.0,0.0,51,0.00,,,0.00,VWS V13.01,2013-08-15 05:41:00,
2013-08-15 01:46:00,56.1,38.3,29.38,ESE,112,0.0,0.0,51,0.00,,,0.00,VWS V13.01,2013-08-15 05:46:00,
2013-08-15 01:51:00,55.9,38.1,29.38,SSE,152,0.0,2.2,51,0.00,,,0.00,VWS V13.01,2013-08-15 05:51:00,
2013-08-15 01:56:00,55.9,38.1,29.38,SSE,152,0.0,0.0,51,0.00,,,0.00,VWS V13.01,2013-08-15 05:56:00,
2013-08-15 02:01:00,55.8,38.4,29.38,SSE,152,0.0,0.0,52,0.00,,,0.00,VWS V13.01,2013-08-15 06:01:00,
2013-08-15 02:06:00,55.6,38.2,29.38,ESE,115,0.0,4.0,52,0.00,,,0.00,VWS V13.01,2013-08-15 06:06:00,
2013-08-15 02:11:00,55.6,38.7,29.38,ESE,112,0.0,0.0,53,0.00,,,0.00,VWS V13.01,2013-08-15 06:11:00,
2013-08-15 02:16:00,55.4,39.0,29.38,East,100,2.7,4.0,54,0.00,,,0.00,VWS V13.01,2013-08-15 06:16:00,
2013-08-15 02:21:00,55.2,39.3,29.38,East,100,0.0,0.0,55,0.00,,,0.00,VWS V13.01,2013-08-15 06:21:00,
2013-08-15 02:26:00,55.0,39.2,29.38,SE,132,0.0,2.2,55,0.00,,,0.00,VWS V13.01,2013-08-15 06:26:00,
2013-08-15 02:31:00,54.9,39.0,29.38,ESE,108,2.2,2.7,55,0.00,,,0.00,VWS V13.01,2013-08-15 06:31:00,
2013-08-15 02:36:00,54.9,39.5,29.38,ESE,123,3.1,3.1,56,0.00,,,0.00,VWS V13.01,2013-08-15 06:36:00,
2013-08-15 02:41:00,54.7,39.3,29.38,SE,142,5.8,5.8,56,0.00,,,0.00,VWS V13.01,2013-08-15 06:41:00,
2013-08-15 02:46:00,54.7,39.8,29.38,SE,129,3.1,3.1,57,0.00,,,0.00,VWS V13.01,2013-08-15 06:46:00,
2013-08-15 02:51:00,54.7,40.2,29.38,ESE,118,3.1,3.1,58,0.00,,,0.00,VWS V13.01,2013-08-15 06:51:00,
2013-08-15 02:56:00,54.7,40.2,29.38,ESE,114,2.7,2.7,58,0.00,,,0.00,VWS V13.01,2013-08-15 06:56:00,
2013-08-15 03:01:00,54.5,40.0,29.38,SE,143,2.7,2.7,58,0.00,,,0.00,VWS V13.01,2013-08-15 07:01:00,
2013-08-15 03:06:00,54.5,40.0,29.38,SSE,149,3.6,3.6,58,0.00,,,0.00,VWS V13.01,2013-08-15 07:06:00,
2013-08-15 03:11:00,54.3,39.9,29.38,South,171,0.0,0.0,58,0.00,,,0.00,VWS V13.01,2013-08-15 07:11:00,
2013-08-15 03:16:00,54.3,39.9,29.38,ESE,123,3.1,4.0,58,0.00,,,0.00,VWS V13.01,2013-08-15 07:16:00,
2013-08-15 03:21:00,54.3,40.3,29.38,East,94,0.0,0.0,59,0.00,,,0.00,VWS V13.01,2013-08-15 07:21:00,
2013-08-15 03:26:00,54.3,40.3,29.38,ESE,119,2.7,2.7,59,0.00,,,0.00,VWS V13.01,2013-08-15 07:26:00,
2013-08-15 03:31:00,54.1,40.1,29.38,ESE,119,2.2,2.2,59,0.00,,,0.00,VWS V13.01,2013-08-15 07:31:00,
2013-08-15 03:36:00,54.1,40.1,29.38,ESE,119,0.0,0.0,59,0.00,,,0.00,VWS V13.01,2013-08-15 07:36:00,
2013-08-15 03:41:00,54.0,40.0,29.38,SE,134,0.0,2.7,59,0.00,,,0.00,VWS V13.01,2013-08-15 07:41:00,
2013-08-15 03:46:00,54.0,40.0,29.38,ENE,66,0.0,0.0,59,0.00,,,0.00,VWS V13.01,2013-08-15 07:46:00,
2013-08-15 03:51:00,54.0,40.0,29.38,SSE,160,0.0,0.0,59,0.00,,,0.00,VWS V13.01,2013-08-15 07:51:00,
2013-08-15 03:56:00,54.0,40.0,29.38,SSE,160,0.0,0.0,59,0.00,,,0.00,VWS V13.01,2013-08-15 07:56:00,
2013-08-15 04:01:00,54.0,40.4,29.38,SSE,160,0.0,0.0,60,0.00,,,0.00,VWS V13.01,2013-08-15 08:01:00,
2013-08-15 04:06:00,53.8,39.8,29.38,SSE,159,0.0,0.0,59,0.00,,,0.00,VWS V13.01,2013-08-15 08:06:00,
2013-08-15 04:11:00,53.6,39.6,29.38,NE,56,0.0,0.0,59,0.00,,,0.00,VWS V13.01,2013-08-15 08:11:00,
2013-08-15 04:16:00,53.4,39.9,29.38,NE,56,0.0,0.0,60,0.00,,,0.00,VWS V13.01,2013-08-15 08:16:00,
2013-08-15 04:21:00,53.4,39.9,29.38,SSE,155,0.0,0.0,60,0.00,,,0.00,VWS V13.01,2013-08-15 08:21:00,
2013-08-15 04:26:00,53.2,39.7,29.38,SSE,150,0.0,0.0,60,0.00,,,0.00,VWS V13.01,2013-08-15 08:26:00,
2013-08-15 04:31:00,53.2,39.7,29.38,SSE,150,0.0,0.0,60,0.00,,,0.00,VWS V13.01,2013-08-15 08:31:00,
2013-08-15 04:36:00,53.2,39.7,29.38,SSE,150,0.0,0.0,60,0.00,,,0.00,VWS V13.01,2013-08-15 08:36:00,
2013-08-15 04:41:00,53.2,39.7,29.38,SSE,150,0.0,0.0,60,0.00,,,0.00,VWS V13.01,2013-08-15 08:41:00,
2013-08-15 04:46:00,53.2,39.7,29.38,SSE,150,0.0,0.0,60,0.00,,,0.00,VWS V13.01,2013-08-15 08:46:00,
2013-08-15 04:51:00,53.2,39.7,29.38,SSE,150,0.0,0.0,60,0.00,,,0.00,VWS V13.01,2013-08-15 08:51:00,
2013-08-15 04:56:00,53.1,39.6,29.38,SSE,150,0.0,0.0,60,0.00,,,0.00,VWS V13.01,2013-08-15 08:56:00,
2013-08-15 05:01:00,53.1,39.6,29.38,SSE,150,0.0,0.0,60,0.00,,,0.00,VWS V13.01,2013-08-15 09:01:00,
2013-08-15 05:06:00,53.1,39.6,29.38,SSE,150,0.0,0.0,60,0.00,,,0.00,VWS V13.01,2013-08-15 09:06:00,
2013-08-15 05:11:00,53.1,39.6,29.38,SW,224,0.0,0.0,60,0.00,,,0.00,VWS V13.01,2013-08-15 09:11:00,
2013-08-15 05:16:00,53.1,39.6,29.38,South,189,0.0,0.0,60,0.00,,,0.00,VWS V13.01,2013-08-15 09:16:00,
2013-08-15 05:21:00,52.9,39.4,29.38,South,189,0.0,0.0,60,0.00,,,0.00,VWS V13.01,2013-08-15 09:21:00,
2013-08-15 05:26:00,52.9,39.4,29.38,NNW,330,0.0,0.0,60,0.00,,,0.00,VWS V13.01,2013-08-15 09:26:00,
2013-08-15 05:31:00,52.9,39.4,29.38,NNW,343,0.0,0.0,60,0.00,,,0.00,VWS V13.01,2013-08-15 09:31:00,
2013-08-15 05:36:00,52.7,39.2,29.38,NNW,343,0.0,0.0,60,0.00,,,0.00,VWS V13.01,2013-08-15 09:36:00,
2013-08-15 05:41:00,52.7,39.2,29.38,NNW,343,0.0,0.0,60,0.00,,,0.00,VWS V13.01,2013-08-15 09:41:00,
2013-08-15 05:46:00,52.5,39.0,29.38,East,92,0.0,2.7,60,0.00,,,0.00,VWS V13.01,2013-08-15 09:46:00,
2013-08-15 05:51:00,52.5,39.0,29.38,East,92,0.0,0.0,60,0.00,,,0.00,VWS V13.01,2013-08-15 09:51:00,
2013-08-15 05:56:00,52.5,39.0,29.38,East,92,0.0,0.0,60,0.00,,,0.00,VWS V13.01,2013-08-15 09:56:00,
2013-08-15 06:01:00,52.7,39.6,29.38,East,92,0.0,0.0,61,0.00,,,0.00,VWS V13.01,2013-08-15 10:01:00,
2013-08-15 06:06:00,52.7,39.6,29.38,East,92,2.2,2.2,61,0.00,,,0.00,VWS V13.01,2013-08-15 10:06:00,
2013-08-15 06:11:00,52.5,39.0,29.38,East,92,0.0,0.0,60,0.00,,,0.00,VWS V13.01,2013-08-15 10:11:00,
2013-08-15 06:16:00,52.5,39.5,29.38,East,92,0.0,0.0,61,0.00,,,0.00,VWS V13.01,2013-08-15 10:16:00,
2013-08-15 06:21:00,52.3,39.3,29.38,SE,137,0.0,0.0,61,0.00,,,0.00,VWS V13.01,2013-08-15 10:21:00,
2013-08-15 06:26:00,52.2,39.1,29.38,SE,137,0.0,0.0,61,0.00,,,0.00,VWS V13.01,2013-08-15 10:26:00,
2013-08-15 06:31:00,52.2,39.1,29.38,SE,137,0.0,0.0,61,0.00,,,0.00,VWS V13.01,2013-08-15 10:31:00,
2013-08-15 06:36:00,52.0,39.0,29.38,SE,137,0.0,0.0,61,0.00,,,0.00,VWS V13.01,2013-08-15 10:36:00,
2013-08-15 06:41:00,52.0,39.0,29.38,SE,137,0.0,0.0,61,0.00,,,0.00,VWS V13.01,2013-08-15 10:41:00,
2013-08-15 06:46:00,52.0,39.0,29.38,SE,137,0.0,0.0,61,0.00,,,0.00,VWS V13.01,2013-08-15 10:46:00,
2013-08-15 06:51:00,52.0,39.0,29.38,SE,137,0.0,0.0,61,0.00,,,0.00,VWS V13.01,2013-08-15 10:51:00,
2013-08-15 06:56:00,52.0,39.4,29.38,SE,137,0.0,0.0,62,0.00,,,0.00,VWS V13.01,2013-08-15 10:56:00,
2013-08-15 07:01:00,52.0,39.4,29.38,SE,137,0.0,0.0,62,0.00,,,0.00,VWS V13.01,2013-08-15 11:01:00,
2013-08-15 07:06:00,52.0,39.4,29.38,SE,137,0.0,0.0,62,0.00,,,0.00,VWS V13.01,2013-08-15 11:06:00,
2013-08-15 07:11:00,52.0,39.4,29.38,SE,137,0.0,0.0,62,0.00,,,0.00,VWS V13.01,2013-08-15 11:11:00,
2013-08-15 07:16:00,52.0,39.4,29.38,SE,137,0.0,0.0,62,0.00,,,0.00,VWS V13.01,2013-08-15 11:16:00,
2013-08-15 07:21:00,52.0,39.4,29.38,SE,137,0.0,0.0,62,0.00,,,0.00,VWS V13.01,2013-08-15 11:21:00,
2013-08-15 07:26:00,52.0,39.4,29.38,SE,137,0.0,0.0,62,0.00,,,0.00,VWS V13.01,2013-08-15 11:26:00,
2013-08-15 07:31:00,52.0,39.4,29.38,SE,137,0.0,0.0,62,0.00,,,0.00,VWS V13.01,2013-08-15 11:31:00,
2013-08-15 07:36:00,52.2,39.5,29.38,SE,137,0.0,0.0,62,0.00,,,0.00,VWS V13.01,2013-08-15 11:36:00,
2013-08-15 07:41:00,52.2,39.5,29.38,SE,137,0.0,0.0,62,0.00,,,0.00,VWS V13.01,2013-08-15 11:41:00,
2013-08-15 07:46:00,52.3,39.7,29.38,SE,137,0.0,0.0,62,0.00,,,0.00,VWS V13.01,2013-08-15 11:46:00,
2013-08-15 07:51:00,52.3,39.7,29.38,SE,137,0.0,0.0,62,0.00,,,0.00,VWS V13.01,2013-08-15 11:51:00,
2013-08-15 07:56:00,52.5,39.9,29.38,SE,137,0.0,0.0,62,0.00,,,0.00,VWS V13.01,2013-08-15 11:56:00,
2013-08-15 08:01:00,52.7,40.1,29.38,SE,146,2.2,2.7,62,0.00,,,0.00,VWS V13.01,2013-08-15 12:01:00,
2013-08-15 08:06:00,52.7,40.1,29.38,SSE,168,0.0,0.0,62,0.00,,,0.00,VWS V13.01,2013-08-15 12:06:00,
2013-08-15 08:11:00,53.1,40.8,29.38,NW,307,0.0,0.0,63,0.00,,,0.00,VWS V13.01,2013-08-15 12:11:00,
2013-08-15 08:16:00,53.1,40.8,29.41,North,353,0.0,0.0,63,0.00,,,0.00,VWS V13.01,2013-08-15 12:16:00,
2013-08-15 08:21:00,53.2,41.0,29.41,North,353,0.0,0.0,63,0.00,,,0.00,VWS V13.01,2013-08-15 12:21:00,
2013-08-15 08:26:00,53.4,41.2,29.41,North,353,0.0,0.0,63,0.00,,,0.00,VWS V13.01,2013-08-15 12:26:00,
2013-08-15 08:31:00,54.0,41.7,29.41,North,353,0.0,0.0,63,0.00,,,0.00,VWS V13.01,2013-08-15 12:31:00,
2013-08-15 08:36:00,54.3,42.0,29.41,North,353,0.0,0.0,63,0.00,,,0.00,VWS V13.01,2013-08-15 12:36:00,
2013-08-15 08:41:00,55.0,42.7,29.41,North,353,0.0,0.0,63,0.00,,,0.00,VWS V13.01,2013-08-15 12:41:00,
2013-08-15 08:46:00,55.6,43.2,29.41,NNE,20,0.0,0.0,63,0.00,,,0.00,VWS V13.01,2013-08-15 12:46:00,
2013-08-15 08:51:00,55.4,43.0,29.41,NNE,20,0.0,0.0,63,0.00,,,0.00,VWS V13.01,2013-08-15 12:51:00,
2013-08-15 08:56:00,55.4,42.6,29.41,NNE,20,0.0,0.0,62,0.00,,,0.00,VWS V13.01,2013-08-15 12:56:00,
2013-08-15 09:01:00,55.9,43.5,29.41,NNE,20,0.0,0.0,63,0.00,,,0.00,VWS V13.01,2013-08-15 13:01:00,
2013-08-15 09:06:00,56.3,43.9,29.41,NNE,20,0.0,0.0,63,0.00,,,0.00,VWS V13.01,2013-08-15 13:06:00,
2013-08-15 09:11:00,56.8,44.4,29.41,NNE,20,0.0,2.2,63,0.00,,,0.00,VWS V13.01,2013-08-15 13:11:00,
2013-08-15 09:16:00,57.2,44.7,29.41,NNE,20,0.0,0.0,63,0.00,,,0.00,VWS V13.01,2013-08-15 13:16:00,
2013-08-15 09:21:00,58.1,46.0,29.41,NNE,20,0.0,0.0,64,0.00,,,0.00,VWS V13.01,2013-08-15 13:21:00,
2013-08-15 09:26:00,58.6,46.5,29.41,NNE,20,0.0,2.2,64,0.00,,,0.00,VWS V13.01,2013-08-15 13:26:00,
2013-08-15 09:32:00,59.4,47.2,29.41,West,266,0.0,2.7,64,0.00,,,0.00,VWS V13.01,2013-08-15 13:32:00,
2013-08-15 09:37:00,59.5,47.4,29.41,WNW,294,0.0,2.7,64,0.00,,,0.00,VWS V13.01,2013-08-15 13:37:00,
2013-08-15 09:42:00,59.7,47.5,29.41,SW,236,0.0,0.0,64,0.00,,,0.00,VWS V13.01,2013-08-15 13:42:00,
2013-08-15 09:47:00,59.7,47.5,29.41,SW,236,0.0,0.0,64,0.00,,,0.00,VWS V13.01,2013-08-15 13:47:00,
2013-08-15 09:52:00,60.4,48.2,29.41,NW,315,0.0,0.0,64,0.00,,,0.00,VWS V13.01,2013-08-15 13:52:00,
2013-08-15 09:57:00,60.8,48.6,29.41,WSW,258,2.7,3.6,64,0.00,,,0.00,VWS V13.01,2013-08-15 13:57:00,
2013-08-15 10:02:00,61.0,48.3,29.41,West,272,0.0,0.0,63,0.00,,,0.00,VWS V13.01,2013-08-15 14:02:00,
2013-08-15 10:07:00,61.5,48.8,29.41,South,184,3.1,3.1,63,0.00,,,0.00,VWS V13.01,2013-08-15 14:07:00,
2013-08-15 10:12:00,62.1,47.1,29.41,WSW,247,0.0,0.0,58,0.00,,,0.00,VWS V13.01,2013-08-15 14:12:00,
2013-08-15 10:17:00,62.6,43.2,29.38,SW,215,2.7,2.7,49,0.00,,,0.00,VWS V13.01,2013-08-15 14:17:00,
2013-08-15 10:22:00,63.3,41.1,29.38,West,274,0.0,0.0,44,0.00,,,0.00,VWS V13.01,2013-08-15 14:22:00,
2013-08-15 10:27:00,64.2,41.3,29.38,North,0,0.0,0.0,43,0.00,,,0.00,VWS V13.01,2013-08-15 14:27:00,
2013-08-15 10:32:00,65.1,36.1,29.38,South,189,0.0,0.0,34,0.00,,,0.00,VWS V13.01,2013-08-15 14:32:00,
2013-08-15 10:37:00,66.6,32.5,29.38,SSE,166,5.4,5.4,28,0.00,,,0.00,VWS V13.01,2013-08-15 14:37:00,
2013-08-15 10:42:00,67.5,29.4,29.38,ESE,106,0.0,3.6,24,0.00,,,0.00,VWS V13.01,2013-08-15 14:42:00,
2013-08-15 10:47:00,68.0,27.8,29.38,East,98,2.7,3.1,22,0.00,,,0.00,VWS V13.01,2013-08-15 14:47:00,
2013-08-15 10:52:00,68.0,27.8,29.38,North,357,2.7,3.1,22,0.00,,,0.00,VWS V13.01,2013-08-15 14:52:00,
2013-08-15 11:00:00,68.7,26.1,29.38,ESE,123,3.6,3.6,20,0.00,,,0.00,VWS V13.01,2013-08-15 15:00:00,
2013-08-15 11:10:00,68.9,14.2,29.38,East,95,5.4,8.1,12,0.00,,,0.00,VWS V13.01,2013-08-15 15:10:00,
2013-08-15 11:15:00,69.1,14.4,29.38,ESE,106,5.8,8.3,12,0.00,,,0.00,VWS V13.01,2013-08-15 15:15:00,
2013-08-15 11:20:00,69.4,14.6,29.38,SE,129,3.6,5.8,12,0.00,,,0.00,VWS V13.01,2013-08-15 15:20:00,
2013-08-15 11:30:00,69.1,14.4,29.38,SE,127,0.0,7.2,12,0.00,,,0.00,VWS V13.01,2013-08-15 15:30:00,
2013-08-15 11:35:00,69.4,14.6,29.38,East,86,5.8,5.8,12,0.00,,,0.00,VWS V13.01,2013-08-15 15:35:00,
2013-08-15 11:45:00,70.2,15.2,29.38,NE,35,0.0,8.3,12,0.00,,,0.00,VWS V13.01,2013-08-15 15:45:00,
2013-08-15 11:50:00,70.0,15.1,29.38,ENE,72,6.3,6.7,12,0.00,,,0.00,VWS V13.01,2013-08-15 15:50:00,
2013-08-15 11:55:00,69.6,14.8,29.38,SE,141,4.5,6.3,12,0.00,,,0.00,VWS V13.01,2013-08-15 15:55:00,
2013-08-15 12:00:00,69.8,14.9,29.38,NNE,12,5.8,5.8,12,0.00,,,0.00,VWS V13.01,2013-08-15 16:00:00,
2013-08-15 12:05:00,70.2,15.2,29.38,East,91,0.0,0.0,12,0.00,,,0.00,VWS V13.01,2013-08-15 16:05:00,
2013-08-15 12:10:00,70.7,15.6,29.38,NNE,28,2.2,2.2,12,0.00,,,0.00,VWS V13.01,2013-08-15 16:10:00,
2013-08-15 12:15:00,70.9,15.8,29.38,NNE,20,2.2,5.4,12,0.00,,,0.00,VWS V13.01,2013-08-15 16:15:00,
2013-08-15 12:20:00,71.1,15.9,29.38,NE,43,2.7,5.4,12,0.00,,,0.00,VWS V13.01,2013-08-15 16:20:00,
2013-08-15 12:30:00,71.4,16.2,29.38,East,86,5.4,9.2,12,0.00,,,0.00,VWS V13.01,2013-08-15 16:30:00,
2013-08-15 12:35:00,71.6,14.4,29.38,ESE,102,5.4,7.6,11,0.00,,,0.00,VWS V13.01,2013-08-15 16:35:00,
2013-08-15 12:45:00,72.1,14.8,29.35,South,180,0.0,6.3,11,0.00,,,0.00,VWS V13.01,2013-08-15 16:45:00,
2013-08-15 12:55:00,72.1,14.8,29.35,ESE,103,2.2,4.0,11,0.00,,,0.00,VWS V13.01,2013-08-15 16:55:00,
2013-08-15 13:00:00,72.3,14.9,29.38,SSE,161,2.7,6.3,11,0.00,,,0.00,VWS V13.01,2013-08-15 17:00:00,
2013-08-15 13:10:00,73.0,15.5,29.38,ENE,76,3.6,5.4,11,0.00,,,0.00,VWS V13.01,2013-08-15 17:10:00,
2013-08-15 13:16:00,73.2,15.6,29.38,SW,234,3.1,4.0,11,0.00,,,0.00,VWS V13.01,2013-08-15 17:16:00,
2013-08-15 13:21:00,73.2,15.6,29.38,North,4,0.0,3.6,11,0.00,,,0.00,VWS V13.01,2013-08-15 17:21:00,
2013-08-15 13:27:00,73.9,16.1,29.38,East,101,4.0,7.2,11,0.00,,,0.00,VWS V13.01,2013-08-15 17:27:00,
2013-08-15 13:32:00,74.1,16.3,29.38,SE,126,0.0,2.2,11,0.00,,,0.00,VWS V13.01,2013-08-15 17:32:00,
2013-08-15 13:38:00,74.5,16.6,29.38,WNW,282,0.0,5.4,11,0.00,,,0.00,VWS V13.01,2013-08-15 17:38:00,
2013-08-15 13:44:00,74.1,16.3,29.38,SE,126,3.6,5.4,11,0.00,,,0.00,VWS V13.01,2013-08-15 17:44:00,
2013-08-15 14:45:00,76.6,16.0,29.35,WSW,239,5.8,5.8,10,0.00,,,0.00,VWS V13.01,2013-08-15 18:45:00,
2013-08-15 14:50:00,75.9,15.5,29.35,SSW,212,4.0,5.8,10,0.00,,,0.00,VWS V13.01,2013-08-15 18:50:00,
2013-08-15 15:01:00,75.6,15.2,29.32,South,185,6.3,7.6,10,0.00,,,0.00,VWS V13.01,2013-08-15 19:01:00,
2013-08-15 15:10:00,76.6,16.0,29.32,SSE,150,6.3,6.3,10,0.00,,,0.00,VWS V13.01,2013-08-15 19:10:00,
2013-08-15 15:20:00,77.2,16.5,29.35,SSE,157,5.4,6.3,10,0.00,,,0.00,VWS V13.01,2013-08-15 19:20:00,
2013-08-15 15:30:00,77.2,16.5,29.35,South,182,4.0,5.4,10,0.00,,,0.00,VWS V13.01,2013-08-15 19:30:00,
2013-08-15 15:35:00,77.5,16.7,29.35,SSW,205,2.7,4.0,10,0.00,,,0.00,VWS V13.01,2013-08-15 19:35:00,
2013-08-15 15:40:00,77.9,17.0,29.35,ESE,123,4.0,6.3,10,0.00,,,0.00,VWS V13.01,2013-08-15 19:40:00,
2013-08-15 15:45:00,77.7,16.9,29.32,SSE,166,5.4,5.8,10,0.00,,,0.00,VWS V13.01,2013-08-15 19:45:00,
2013-08-15 15:53:00,77.5,16.7,29.32,ESE,108,2.2,4.9,10,0.00,,,0.00,VWS V13.01,2013-08-15 19:53:00,
2013-08-15 16:05:00,77.9,17.0,29.32,WSW,254,3.1,6.3,10,0.00,,,0.00,VWS V13.01,2013-08-15 20:05:00,
2013-08-15 16:10:00,77.7,16.9,29.32,SW,235,4.0,5.8,10,0.00,,,0.00,VWS V13.01,2013-08-15 20:10:00,
2013-08-15 16:21:00,77.2,16.5,29.32,SW,222,6.7,7.6,10,0.00,,,0.00,VWS V13.01,2013-08-15 20:21:00,
2013-08-15 16:57:00,77.9,17.0,29.32,SE,144,2.2,3.1,10,0.00,,,0.00,VWS V13.01,2013-08-15 20:57:00,
2013-08-15 17:02:00,78.4,17.4,29.32,NE,56,3.6,4.5,10,0.00,,,0.00,VWS V13.01,2013-08-15 21:02:00,
2013-08-15 17:07:00,77.5,16.7,29.32,ENE,67,4.5,5.4,10,0.00,,,0.00,VWS V13.01,2013-08-15 21:07:00,
2013-08-15 17:12:00,77.4,16.6,29.32,North,353,3.1,4.9,10,0.00,,,0.00,VWS V13.01,2013-08-15 21:12:00,
2013-08-15 17:17:00,77.5,16.7,29.32,WSW,240,2.2,2.7,10,0.00,,,0.00,VWS V13.01,2013-08-15 21:17:00,
2013-08-15 17:22:00,78.1,17.1,29.32,ENE,66,3.6,4.0,10,0.00,,,0.00,VWS V13.01,2013-08-15 21:22:00,
2013-08-15 17:28:00,77.9,17.0,29.32,NNW,328,0.0,4.0,10,0.00,,,0.00,VWS V13.01,2013-08-15 21:28:00,
2013-08-15 17:34:00,77.7,16.9,29.32,North,0,2.7,4.9,10,0.00,,,0.00,VWS V13.01,2013-08-15 21:34:00,
2013-08-15 17:39:00,77.5,16.7,29.32,North,349,2.7,3.6,10,0.00,,,0.00,VWS V13.01,2013-08-15 21:39:00,
2013-08-15 17:44:00,77.9,17.0,29.32,ESE,118,3.6,3.6,10,0.00,,,0.00,VWS V13.01,2013-08-15 21:44:00,
2013-08-15 17:49:00,78.1,17.1,29.32,East,93,2.7,4.0,10,0.00,,,0.00,VWS V13.01,2013-08-15 21:49:00,
2013-08-15 17:54:00,77.7,16.9,29.32,North,0,4.0,4.0,10,0.00,,,0.00,VWS V13.01,2013-08-15 21:54:00,
2013-08-15 17:59:00,77.0,16.3,29.32,North,353,5.4,5.8,10,0.00,,,0.00,VWS V13.01,2013-08-15 21:59:00,
2013-08-15 18:04:00,76.6,16.0,29.32,SW,227,0.0,2.2,10,0.00,,,0.00,VWS V13.01,2013-08-15 22:04:00,
2013-08-15 18:09:00,76.3,15.8,29.32,NNE,21,2.7,4.9,10,0.00,,,0.00,VWS V13.01,2013-08-15 22:09:00,
2013-08-15 18:15:00,76.5,15.9,29.32,North,0,0.0,2.7,10,0.00,,,0.00,VWS V13.01,2013-08-15 22:15:00,
2013-08-15 18:20:00,76.8,16.2,29.32,NNW,334,2.2,3.1,10,0.00,,,0.00,VWS V13.01,2013-08-15 22:20:00,
2013-08-15 18:25:00,77.2,16.5,29.32,NW,324,4.9,4.9,10,0.00,,,0.00,VWS V13.01,2013-08-15 22:25:00,
2013-08-15 18:30:00,76.5,15.9,29.29,North,350,3.6,4.0,10,0.00,,,0.00,VWS V13.01,2013-08-15 22:30:00,
2013-08-15 18:35:00,76.1,15.6,29.29,North,0,3.1,4.0,10,0.00,,,0.00,VWS V13.01,2013-08-15 22:35:00,
2013-08-15 18:40:00,75.7,15.4,29.29,NNE,12,2.7,3.6,10,0.00,,,0.00,VWS V13.01,2013-08-15 22:40:00,
2013-08-15 18:45:00,75.7,15.4,29.32,North,0,3.6,3.6,10,0.00,,,0.00,VWS V13.01,2013-08-15 22:45:00,
2013-08-15 18:50:00,76.5,15.9,29.32,NNW,330,4.0,4.0,10,0.00,,,0.00,VWS V13.01,2013-08-15 22:50:00,
2013-08-15 18:55:00,76.8,16.2,29.32,NE,36,3.6,4.0,10,0.00,,,0.00,VWS V13.01,2013-08-15 22:55:00,
2013-08-15 19:00:00,76.6,16.0,29.32,NNE,25,2.7,6.3,10,0.00,,,0.00,VWS V13.01,2013-08-15 23:00:00,
2013-08-15 19:06:00,76.3,15.8,29.32,North,0,3.6,5.8,10,0.00,,,0.00,VWS V13.01,2013-08-15 23:06:00,
2013-08-15 19:16:00,76.1,15.6,29.32,East,85,0.0,4.0,10,0.00,,,0.00,VWS V13.01,2013-08-15 23:16:00,
2013-08-15 19:21:00,76.3,15.8,29.32,NNW,328,3.1,3.6,10,0.00,,,0.00,VWS V13.01,2013-08-15 23:21:00,
2013-08-15 19:31:00,75.7,15.4,29.32,NNE,23,2.7,3.6,10,0.00,,,0.00,VWS V13.01,2013-08-15 23:31:00,
2013-08-15 19:40:00,75.0,17.0,29.32,NE,36,0.0,3.1,11,0.00,,,0.00,VWS V13.01,2013-08-15 23:40:00,
2013-08-15 19:45:00,75.0,17.0,29.32,NE,41,0.0,2.2,11,0.00,,,0.00,VWS V13.01,2013-08-15 23:45:00,
2013-08-15 19:50:00,74.8,16.9,29.32,NNE,16,0.0,0.0,11,0.00,,,0.00,VWS V13.01,2013-08-15 23:50:00,
2013-08-15 20:00:00,74.5,16.6,29.32,NE,55,0.0,0.0,11,0.00,,,0.00,VWS V13.01,2013-08-16 00:00:00,
2013-08-15 20:05:00,73.6,19.8,29.32,NE,55,0.0,0.0,13,0.00,,,0.00,VWS V13.01,2013-08-16 00:05:00,
2013-08-15 20:10:00,72.5,20.6,29.32,ESE,120,0.0,0.0,14,0.00,,,0.00,VWS V13.01,2013-08-16 00:10:00,
2013-08-15 20:15:00,71.8,20.1,29.32,ESE,120,0.0,0.0,14,0.00,,,0.00,VWS V13.01,2013-08-16 00:15:00,
2013-08-15 20:20:00,71.1,19.5,29.32,ESE,120,0.0,0.0,14,0.00,,,0.00,VWS V13.01,2013-08-16 00:20:00,
2013-08-15 20:25:00,70.7,19.2,29.32,ENE,62,4.0,4.0,14,0.00,,,0.00,VWS V13.01,2013-08-16 00:25:00,
2013-08-15 20:30:00,70.7,19.2,29.32,ENE,64,0.0,2.7,14,0.00,,,0.00,VWS V13.01,2013-08-16 00:30:00,
2013-08-15 20:35:00,70.5,23.6,29.32,ENE,64,0.0,0.0,17,0.00,,,0.00,VWS V13.01,2013-08-16 00:35:00,
2013-08-15 20:41:00,69.8,23.1,29.32,ENE,64,0.0,0.0,17,0.00,,,0.00,VWS V13.01,2013-08-16 00:41:00,
2013-08-15 20:46:00,69.1,26.4,29.32,ENE,64,0.0,0.0,20,0.00,,,0.00,VWS V13.01,2013-08-16 00:46:00,
2013-08-15 20:51:00,68.5,29.3,29.32,NNW,343,0.0,2.7,23,0.00,,,0.00,VWS V13.01,2013-08-16 00:51:00,
2013-08-15 20:56:00,68.0,29.9,29.32,NNW,343,0.0,0.0,24,0.00,,,0.00,VWS V13.01,2013-08-16 00:56:00,
2013-08-15 21:01:00,67.5,32.3,29.32,NNW,343,0.0,2.7,27,0.00,,,0.00,VWS V13.01,2013-08-16 01:01:00,
2013-08-15 21:06:00,67.3,33.1,29.32,NNW,343,0.0,0.0,28,0.00,,,0.00,VWS V13.01,2013-08-16 01:06:00,
2013-08-15 21:11:00,66.9,31.9,29.32,NNW,343,0.0,0.0,27,0.00,,,0.00,VWS V13.01,2013-08-16 01:11:00,
2013-08-15 21:17:00,66.6,32.5,29.35,NNW,343,0.0,0.0,28,0.00,,,0.00,VWS V13.01,2013-08-16 01:17:00,
2013-08-15 21:22:00,66.2,33.9,29.35,NNW,343,0.0,0.0,30,0.00,,,0.00,VWS V13.01,2013-08-16 01:22:00,
2013-08-15 21:27:00,66.0,34.5,29.35,NNW,343,0.0,0.0,31,0.00,,,0.00,VWS V13.01,2013-08-16 01:27:00,
2013-08-15 21:34:00,65.7,35.8,29.35,NNW,343,0.0,0.0,33,0.00,,,0.00,VWS V13.01,2013-08-16 01:34:00,
2013-08-15 21:39:00,65.5,35.6,29.35,NNW,343,0.0,0.0,33,0.00,,,0.00,VWS V13.01,2013-08-16 01:39:00,
2013-08-15 21:44:00,65.3,35.5,29.35,NNW,343,0.0,0.0,33,0.00,,,0.00,VWS V13.01,2013-08-16 01:44:00,
2013-08-15 21:49:00,65.1,35.3,29.35,NNW,343,0.0,0.0,33,0.00,,,0.00,VWS V13.01,2013-08-16 01:49:00,
2013-08-15 21:54:00,64.9,35.9,29.35,NNW,343,0.0,0.0,34,0.00,,,0.00,VWS V13.01,2013-08-16 01:54:00,
2013-08-15 21:59:00,64.8,36.5,29.35,NNW,343,2.2,2.2,35,0.00,,,0.00,VWS V13.01,2013-08-16 01:59:00,
2013-08-15 22:04:00,64.6,37.0,29.35,NNW,343,0.0,2.2,36,0.00,,,0.00,VWS V13.01,2013-08-16 02:04:00,
2013-08-15 22:09:00,64.4,37.6,29.35,NNW,343,0.0,0.0,37,0.00,,,0.00,VWS V13.01,2013-08-16 02:09:00,
2013-08-15 22:14:00,64.2,37.4,29.35,NNW,343,0.0,0.0,37,0.00,,,0.00,VWS V13.01,2013-08-16 02:14:00,
2013-08-15 22:19:00,64.2,38.1,29.35,NNW,343,0.0,0.0,38,0.00,,,0.00,VWS V13.01,2013-08-16 02:19:00,
2013-08-15 22:24:00,63.9,37.8,29.35,NNW,343,0.0,0.0,38,0.00,,,0.00,VWS V13.01,2013-08-16 02:24:00,
2013-08-15 22:29:00,63.7,37.6,29.35,NNW,343,0.0,0.0,38,0.00,,,0.00,VWS V13.01,2013-08-16 02:29:00,
2013-08-15 22:34:00,63.5,37.5,29.35,NNW,343,0.0,0.0,38,0.00,,,0.00,VWS V13.01,2013-08-16 02:34:00,
2013-08-15 22:39:00,63.5,38.1,29.35,NNW,343,0.0,0.0,39,0.00,,,0.00,VWS V13.01,2013-08-16 02:39:00,
2013-08-15 22:45:00,63.5,38.8,29.35,NNW,343,0.0,0.0,40,0.00,,,0.00,VWS V13.01,2013-08-16 02:45:00,
2013-08-15 22:50:00,63.3,38.6,29.35,NNW,343,0.0,0.0,40,0.00,,,0.00,VWS V13.01,2013-08-16 02:50:00,
2013-08-15 22:55:00,63.1,39.1,29.35,NNW,343,0.0,0.0,41,0.00,,,0.00,VWS V13.01,2013-08-16 02:55:00,
2013-08-15 23:00:00,63.0,39.5,29.35,NNW,343,0.0,0.0,42,0.00,,,0.00,VWS V13.01,2013-08-16 03:00:00,
2013-08-15 23:05:00,63.0,39.5,29.35,NNW,343,0.0,0.0,42,0.00,,,0.00,VWS V13.01,2013-08-16 03:05:00,
2013-08-15 23:10:00,62.8,40.0,29.35,NNW,343,0.0,0.0,43,0.00,,,0.00,VWS V13.01,2013-08-16 03:10:00,
2013-08-15 23:15:00,62.6,39.8,29.35,NNW,343,0.0,0.0,43,0.00,,,0.00,VWS V13.01,2013-08-16 03:15:00,
2013-08-15 23:20:00,62.4,40.2,29.35,NNW,343,0.0,0.0,44,0.00,,,0.00,VWS V13.01,2013-08-16 03:20:00,
2013-08-15 23:25:00,62.2,40.1,29.35,NNW,343,0.0,0.0,44,0.00,,,0.00,VWS V13.01,2013-08-16 03:25:00,
2013-08-15 23:30:00,62.2,40.7,29.35,NNW,343,0.0,0.0,45,0.00,,,0.00,VWS V13.01,2013-08-16 03:30:00,
2013-08-15 23:35:00,62.1,40.5,29.35,NNW,343,0.0,0.0,45,0.00,,,0.00,VWS V13.01,2013-08-16 03:35:00,
2013-08-15 23:40:00,61.9,40.3,29.35,NNW,343,0.0,0.0,45,0.00,,,0.00,VWS V13.01,2013-08-16 03:40:00,
2013-08-15 23:45:00,61.9,40.3,29.35,NNW,343,0.0,0.0,45,0.00,,,0.00,VWS V13.01,2013-08-16 03:45:00,
2013-08-15 23:50:00,61.7,40.2,29.35,NNW,343,0.0,0.0,45,0.00,,,0.00,VWS V13.01,2013-08-16 03:50:00,
2013-08-15 23:55:00,61.7,40.7,29.35,NNW,343,0.0,0.0,46,0.00,,,0.00,VWS V13.01,2013-08-16 03:55:00,